HEBL

Abu Simbel Airport

Abu Simbel, Egypt
METAR HEBL 161200Z 08007KT CAVOK 25/06 Q1016 NOSIG
Observed Flight Rules
Dec-16 @ 12:00 UTC (45 minutes ago) Visual Flight Rules
Wind Visibility Clouds
80° at 7 knots 10,000+ meters
  • Clear skies
Temperatures Readings
Current 25°C / 77°F
Dewpoint 6°C / 43°F
Humidity 30%
Altimeter 30" Hg
Pressure 1016 hPa
Elevation 188
METAR HEBL 161200Z 08007KT CAVOK 25/06 Q1016 NOSIG
Observed Flight Rules
Dec-16 @ 12:00 UTC
(45 minutes ago)
VFR
Wind Visibility
80° at 7 knots 10,000+ meters
Clouds
  • Clear skies
Temperature Dewpoint
25°C / 77°F 6°C / 43°F
Humidity Altimeter Pressure
30% 30" Hg 1016 hPa